Angle Inlet, MN

6:06 PM CDT on October 22, 2014 (GMT -0500)
Flag Island | Change Station
CLOSE
Current Station
Airport
Location: Flag Island,
Elevation: 1079 ft
Nearby Weather Stations

Elev 1079 ft 49.32 °N, 94.90 °W | Updated 12 minutes ago

Partly Cloudy
Partly Cloudy
54 °F
Feels Like 54 °F
N
20
Wind Variable Wind from SSE

Today
High -- | Low -- °F
--% Chance of Precip.
Yesterday
High -- | Low -- °F
Precip. -- in
7:52 AM 6:16 PM
Waning Crescent, 1% visible
Pressure 29.83 in
Visibility 10.0 miles
Clouds Overcast 4000 ft
Dew Point 46 °F
Humidity 77%
Rainfall 0.00 in
Snow Depth Not available.
UV 0 out of 12
Pollen 1.30 out of 12
Air Quality Not available.
Flu Activity Sporadic
METAR KFGN 222254Z AUTO 16017KT 10SM OVC040 12/08 A2983 RMK AO2

More Conditions Fewer Conditions

Pressure 29.83 in
Visibility 10.0 miles
Clouds Overcast 4000 ft
Dew Point 46 °F
Humidity 77%
Rainfall 0.00 in
Snow Depth Not available.
UV 0 out of 12
Pollen 1.30 out of 12
Air Quality Not available.
Flu Activity Sporadic
METAR KFGN 222254Z AUTO 16017KT 10SM OVC040 12/08 A2983 RMK AO2

More Conditions Fewer Conditions

10-Day Weather Forecast

Almanac

Astronomy

Oct. 22, 2014 Rise Set
Actual Time 7:52 AM CDT 6:16 PM CDT
Civil Twilight 7:19 AM CDT 6:48 PM CDT
Nautical Twilight 6:42 AM CDT 7:26 PM CDT
Astronomical Twilight 6:05 AM CDT 8:02 PM CDT
Moon 6:28 AM CDT 5:48 PM CDT
Length of Visible Light 11h 29m
Length of Day
10h 24m
Tomorrow will be 3m 27s shorter.
Waning Crescent, 1% of the Moon is Illuminated
Today
Waning Crescent
Oct 23
New
Oct 30
First Quarter
Nov 6
Full
Nov 14
Last Quarter

Today's Extremes

State Highs State Lows

Community

WunderPhotos

Upload Photos

1,764,071 photos uploaded!

WunderBlogs® & News

Nearby

Snow Depth

Station Depth Elevation
No new snow has been reported.

Earthquake Activity

City Distance Mag. Time & Date
No recent earthquake activity has been reported nearby.
Minimum magnitude displayed is 2.5.

Coastal Water Temperatures

Place Temperature
No Stations Reporting

Nearby Weather Stations